createdAt,value
2023-04-10T00:07:58.916Z,101005.22
2023-04-10T00:09:20.255Z,101008.63
2023-04-10T00:10:42.413Z,101010.16
2023-04-10T00:12:04.096Z,101010.31
2023-04-10T00:14:06.981Z,100995.63
2023-04-10T00:15:51.170Z,100990.03
2023-04-10T00:18:41.613Z,101000.44
2023-04-10T00:20:05.306Z,100991.16
2023-04-10T00:24:35.786Z,100997.34
2023-04-10T00:26:12.049Z,100989.69
2023-04-10T00:27:35.224Z,100984.63
2023-04-10T00:29:28.143Z,101003.00
2023-04-10T00:30:52.554Z,100984.03
2023-04-10T00:32:34.444Z,100994.22
2023-04-10T00:33:59.163Z,100998.47
2023-04-10T00:35:21.544Z,101003.81
2023-04-10T00:36:48.127Z,101003.00
2023-04-10T00:38:21.652Z,100984.91
2023-04-10T00:39:53.227Z,100996.03
2023-04-10T00:41:17.097Z,101001.53
2023-04-10T00:42:38.372Z,100988.53
2023-04-10T00:44:02.308Z,100997.00
2023-04-10T00:46:03.009Z,100979.09
2023-04-10T00:47:47.440Z,100984.44
2023-04-10T00:49:11.612Z,100982.75
2023-04-10T00:50:34.737Z,100975.31
2023-04-10T00:52:04.648Z,100977.53
2023-04-10T00:53:37.546Z,100973.88
2023-04-10T00:55:06.705Z,100975.84
2023-04-10T00:57:51.752Z,100988.69
2023-04-10T00:59:18.609Z,100984.44
2023-04-10T01:00:41.224Z,100986.00
2023-04-10T01:02:03.916Z,100995.56
2023-04-10T01:03:25.716Z,100991.59
2023-04-10T01:04:58.302Z,100986.53
2023-04-10T01:06:31.386Z,101002.91
2023-04-10T01:08:30.225Z,100990.47
2023-04-10T01:10:17.138Z,100989.47
2023-04-10T01:14:42.888Z,100991.31
2023-04-10T01:16:11.751Z,100991.44
2023-04-10T01:17:41.734Z,100999.06
2023-04-10T01:19:11.137Z,100989.75
2023-04-10T01:20:36.307Z,100998.34
2023-04-10T01:22:01.599Z,100997.50
2023-04-10T01:23:55.616Z,101000.31
2023-04-10T01:25:39.733Z,100996.06
2023-04-10T01:27:16.672Z,100991.00
2023-04-10T01:29:00.965Z,100994.53
2023-04-10T01:30:24.866Z,100992.84
2023-04-10T01:31:53.731Z,100995.78
2023-04-10T01:33:20.176Z,100986.63
2023-04-10T01:34:46.943Z,100993.13
2023-04-10T01:36:10.354Z,100995.47
2023-04-10T01:37:35.898Z,100982.38
2023-04-10T01:38:58.890Z,100989.84
2023-04-10T01:41:03.233Z,100991.97
2023-04-10T01:42:33.487Z,100987.56
2023-04-10T01:43:58.279Z,100988.97
2023-04-10T01:45:24.991Z,100988.69
2023-04-10T01:46:49.629Z,100993.31
2023-04-10T01:48:16.775Z,100989.09
2023-04-10T01:49:44.742Z,100986.56
2023-04-10T01:51:12.488Z,100995.31
2023-04-10T01:52:34.740Z,100990.94
2023-04-10T01:54:10.511Z,101002.63
2023-04-10T01:55:32.702Z,101002.63
2023-04-10T01:57:02.375Z,100999.94
2023-04-10T01:58:26.910Z,101002.63
2023-04-10T01:59:53.354Z,101006.16
2023-04-10T02:01:29.036Z,101004.31
2023-04-10T02:02:52.749Z,100993.88
2023-04-10T02:04:14.023Z,100992.19
2023-04-10T02:05:56.409Z,101000.78
2023-04-10T02:07:29.032Z,101004.47
2023-04-10T02:08:56.682Z,101009.66
2023-04-10T02:10:22.754Z,101000.78
2023-04-10T02:12:19.938Z,101003.75
2023-04-10T02:13:41.924Z,101000.47
2023-04-10T02:15:06.723Z,101000.63
2023-04-10T02:16:30.018Z,100998.91
2023-04-10T02:17:56.564Z,101004.81
2023-04-10T02:19:24.565Z,100993.41
2023-04-10T02:20:48.001Z,100996.91
2023-04-10T02:22:13.878Z,100998.19
2023-04-10T02:23:36.950Z,101000.84
2023-04-10T02:24:59.118Z,100999.28
2023-04-10T02:26:22.640Z,101003.94
2023-04-10T02:27:45.252Z,101000.66
2023-04-10T02:29:06.521Z,101005.03
2023-04-10T02:30:33.141Z,101006.00
2023-04-10T02:31:57.314Z,101000.09
2023-04-10T02:33:25.834Z,100992.56
2023-04-10T02:34:51.286Z,101003.03
2023-04-10T02:36:19.469Z,100995.41
2023-04-10T02:37:42.774Z,101007.22
2023-04-10T02:39:06.351Z,101009.50
2023-04-10T02:40:27.760Z,101013.28
2023-04-10T02:42:10.202Z,101010.16
2023-04-10T02:43:33.014Z,101008.44
2023-04-10T02:44:58.108Z,101011.00
2023-04-10T02:46:28.602Z,100998.13
2023-04-10T02:47:50.240Z,101009.44
2023-04-10T02:49:12.806Z,101012.22
2023-04-10T02:50:35.218Z,101009.53
2023-04-10T02:51:57.950Z,101007.00
2023-04-10T02:53:29.861Z,100999.50
2023-04-10T02:54:55.848Z,100993.84
2023-04-10T02:56:20.029Z,100997.94
2023-04-10T02:57:47.588Z,101000.91
2023-04-10T02:59:09.721Z,101001.63
2023-04-10T03:00:31.537Z,101005.13
2023-04-10T03:04:06.536Z,101001.41
2023-04-10T03:05:33.996Z,101013.66
2023-04-10T03:06:58.534Z,101005.78
2023-04-10T03:08:21.247Z,101000.09
2023-04-10T03:09:42.205Z,101014.03
2023-04-10T03:11:04.662Z,101007.13
2023-04-10T03:12:29.758Z,101007.13
2023-04-10T03:13:53.241Z,101008.38
2023-04-10T03:15:16.381Z,101008.97
2023-04-10T03:16:37.937Z,100995.53
2023-04-10T03:18:03.830Z,101008.25
2023-04-10T03:19:26.915Z,101006.94
2023-04-10T03:20:49.797Z,101018.22
2023-04-10T03:22:14.964Z,101007.66
2023-04-10T03:23:37.353Z,101011.06
2023-04-10T03:24:59.396Z,101011.44
2023-04-10T03:26:24.274Z,101010.44
2023-04-10T03:27:49.065Z,101009.88
2023-04-10T03:29:11.562Z,101008.03
2023-04-10T03:30:35.433Z,101004.66
2023-04-10T03:31:58.573Z,101015.41
2023-04-10T03:33:24.811Z,100995.41
2023-04-10T03:37:55.872Z,100996.72
2023-04-10T03:39:27.696Z,100997.81
2023-04-10T03:43:56.088Z,100993.06
2023-04-10T03:45:48.673Z,101000.69
2023-04-10T03:47:12.361Z,100995.09
2023-04-10T03:48:37.520Z,100994.94
2023-04-10T03:50:00.201Z,101006.97
2023-04-10T03:51:30.531Z,100993.84
2023-04-10T03:53:11.786Z,101007.81
2023-04-10T03:54:34.360Z,100993.13
2023-04-10T03:56:27.860Z,101008.66
2023-04-10T03:57:49.716Z,100997.38
2023-04-10T03:59:19.370Z,101004.03
2023-04-10T04:00:40.534Z,100995.41
2023-04-10T04:05:45.020Z,100989.81
2023-04-10T04:07:29.541Z,101001.91
2023-04-10T04:10:29.279Z,101005.25
2023-04-10T04:12:28.195Z,101014.91
2023-04-10T04:13:57.842Z,101006.31
2023-04-10T04:15:34.677Z,101019.75
2023-04-10T04:17:12.101Z,101005.03
2023-04-10T04:18:58.871Z,101018.34
2023-04-10T04:20:49.830Z,101025.09
2023-04-10T04:22:29.119Z,101018.81
2023-04-10T04:24:01.142Z,101005.81
2023-04-10T04:26:11.057Z,101009.66
2023-04-10T04:27:59.073Z,100999.94
2023-04-10T04:29:38.496Z,101018.59
2023-04-10T04:31:12.574Z,101004.66
2023-04-10T04:32:44.158Z,101017.78
2023-04-10T04:35:32.933Z,101016.53
2023-04-10T04:37:13.523Z,101006.53
2023-04-10T04:38:58.246Z,101013.19
2023-04-10T04:40:25.886Z,101012.78
2023-04-10T04:42:07.851Z,101009.84
2023-04-10T04:43:42.888Z,101023.41
2023-04-10T04:45:31.815Z,101001.41
2023-04-10T04:47:24.387Z,101006.94
2023-04-10T04:49:02.815Z,101002.31
2023-04-10T04:50:37.787Z,101007.94
2023-04-10T04:52:09.485Z,101021.34
2023-04-10T04:53:56.758Z,101020.38
2023-04-10T04:55:38.194Z,101022.78
2023-04-10T04:57:33.143Z,101031.97
2023-04-10T04:58:58.580Z,101036.63
2023-04-10T05:00:43.816Z,101031.44
2023-04-10T05:02:44.630Z,101026.53
2023-04-10T05:04:26.627Z,101019.63
2023-04-10T05:06:21.870Z,101032.75
2023-04-10T05:08:06.492Z,101035.59
2023-04-10T05:09:57.188Z,101030.50
2023-04-10T05:11:40.132Z,101033.59
2023-04-10T05:13:34.407Z,101036.56
2023-04-10T05:15:15.745Z,101043.34
2023-04-10T05:17:08.482Z,101049.25
2023-04-10T05:18:39.953Z,101049.13
2023-04-10T05:20:38.019Z,101050.53
2023-04-10T05:22:34.570Z,101058.03
2023-04-10T05:24:29.603Z,101056.31
2023-04-10T05:26:14.405Z,101057.31
2023-04-10T05:27:54.784Z,101059.69
2023-04-10T05:29:48.998Z,101079.19
2023-04-10T05:31:35.722Z,101080.84
2023-04-10T05:33:11.068Z,101074.22
2023-04-10T05:35:27.294Z,101076.06
2023-04-10T05:36:55.255Z,101070.53
2023-04-10T05:38:37.685Z,101084.94
2023-04-10T05:43:18.158Z,101082.50
2023-04-10T05:44:56.180Z,101091.56
2023-04-10T05:46:41.784Z,101103.53
2023-04-10T05:48:21.058Z,101094.50
2023-04-10T05:50:24.472Z,101089.28
2023-04-10T05:52:06.964Z,101098.31
2023-04-10T05:53:53.967Z,101096.59
2023-04-10T05:55:38.519Z,101087.28
2023-04-10T05:57:19.026Z,101096.59
2023-04-10T05:59:00.218Z,101084.72
2023-04-10T06:00:44.243Z,101077.91
2023-04-10T06:02:39.584Z,101077.31
2023-04-10T06:04:06.669Z,101079.41
2023-04-10T06:05:32.366Z,101070.22
2023-04-10T06:10:47.165Z,101074.13
2023-04-10T06:12:14.824Z,101077.34
2023-04-10T06:14:53.731Z,101077.88
2023-04-10T06:19:15.332Z,101080.38
2023-04-10T06:20:37.530Z,101070.00
2023-04-10T06:22:02.367Z,101076.88
2023-04-10T06:23:36.976Z,101078.78
2023-04-10T06:25:08.138Z,101075.47
2023-04-10T06:27:14.416Z,101060.88
2023-04-10T06:28:38.135Z,101072.66
2023-04-10T06:30:00.873Z,101061.75
2023-04-10T06:34:31.261Z,101071.00
2023-04-10T06:35:58.213Z,101069.41
2023-04-10T06:37:20.995Z,101075.47
2023-04-10T06:42:37.750Z,101078.44
2023-04-10T06:46:59.926Z,101081.22
2023-04-10T06:48:22.269Z,101076.97
2023-04-10T06:49:53.583Z,101083.25
2023-04-10T06:51:21.489Z,101083.81
2023-04-10T06:52:46.304Z,101087.50
2023-04-10T06:54:11.296Z,101082.41
2023-04-10T06:55:33.522Z,101095.94
2023-04-10T06:56:59.018Z,101096.50
2023-04-10T06:58:21.209Z,101096.16
2023-04-10T06:59:43.762Z,101089.75
2023-04-10T07:01:09.275Z,101094.03
2023-04-10T07:02:38.619Z,101101.94
2023-04-10T07:04:01.081Z,101092.50
2023-04-10T07:05:28.766Z,101105.31
2023-04-10T07:06:53.015Z,101097.22
2023-04-10T07:08:21.863Z,101093.31
2023-04-10T07:09:45.266Z,101108.50
2023-04-10T07:11:10.613Z,101102.81
2023-04-10T07:12:46.419Z,101083.25
2023-04-10T07:14:23.204Z,101090.06
2023-04-10T07:15:52.920Z,101103.06
2023-04-10T07:17:15.352Z,101096.38
2023-04-10T07:18:42.801Z,101092.66
2023-04-10T07:20:08.498Z,101093.38
2023-04-10T07:21:33.274Z,101087.00
2023-04-10T07:22:59.153Z,101083.97
2023-04-10T07:24:22.053Z,101090.22
2023-04-10T07:25:44.539Z,101099.31
2023-04-10T07:28:47.091Z,101085.50
2023-04-10T07:30:28.737Z,101092.59
2023-04-10T07:32:05.917Z,101092.41
2023-04-10T07:33:36.618Z,101096.47
2023-04-10T07:34:59.270Z,101092.59
2023-04-10T07:39:46.461Z,101089.22
2023-04-10T07:41:35.688Z,101089.06
2023-04-10T07:43:56.063Z,101099.38
2023-04-10T07:47:48.698Z,101081.19
2023-04-10T07:49:21.965Z,101092.47
2023-04-10T07:50:44.511Z,101088.38
2023-04-10T07:52:06.965Z,101083.03
2023-04-10T07:53:33.353Z,101084.03
2023-04-10T07:55:13.350Z,101073.53
2023-04-10T08:00:00.661Z,101091.84
2023-04-10T08:01:26.586Z,101103.59
2023-04-10T08:12:59.142Z,101067.22
2023-04-10T08:17:18.845Z,101067.22
2023-04-10T08:19:07.621Z,101067.69
2023-04-10T08:20:41.658Z,101065.28
2023-04-10T08:22:06.972Z,101067.47
2023-04-10T08:24:27.594Z,101078.59
2023-04-10T08:28:25.762Z,101072.56
2023-04-10T08:30:29.397Z,101085.41
2023-04-10T08:31:55.428Z,101084.44
2023-04-10T08:33:19.544Z,101081.16
2023-04-10T08:34:42.362Z,101069.84
2023-04-10T08:37:00.978Z,101083.72
2023-04-10T08:38:32.980Z,101072.56
2023-04-10T08:39:55.741Z,101073.03
2023-04-10T08:41:21.548Z,101066.09
2023-04-10T08:46:11.093Z,101078.66
2023-04-10T08:47:39.307Z,101070.91
2023-04-10T08:49:04.689Z,101082.44
2023-04-10T08:53:22.543Z,101068.53
2023-04-10T08:54:54.803Z,101078.56
2023-04-10T08:59:37.083Z,101063.44
2023-04-10T09:03:49.626Z,101064.09
2023-04-10T09:06:03.021Z,101065.69
2023-04-10T09:08:16.086Z,101079.31
2023-04-10T09:10:53.912Z,101075.72
2023-04-10T09:12:32.422Z,101061.34
2023-04-10T09:13:57.018Z,101077.06
2023-04-10T09:15:35.005Z,101069.13
2023-04-10T09:17:22.867Z,101058.75
2023-04-10T09:18:49.070Z,101053.75
2023-04-10T09:20:29.787Z,101055.50
2023-04-10T09:22:17.354Z,101053.84
2023-04-10T09:23:54.041Z,101052.63
2023-04-10T09:25:55.462Z,101061.47
2023-04-10T09:27:39.692Z,101051.84
2023-04-10T09:29:57.307Z,101044.91
2023-04-10T09:31:33.543Z,101052.72
2023-04-10T09:33:09.287Z,101059.91
2023-04-10T09:37:41.289Z,101064.91
2023-04-10T09:39:10.071Z,101061.81
2023-04-10T09:40:42.584Z,101049.13
2023-04-10T09:42:05.258Z,101050.22
2023-04-10T09:43:28.885Z,101045.66
2023-04-10T09:45:00.184Z,101053.75
2023-04-10T09:49:32.978Z,101038.31
2023-04-10T09:51:00.508Z,101033.91
2023-04-10T09:52:23.608Z,101027.91
2023-04-10T09:53:59.297Z,101034.53
2023-04-10T09:55:21.915Z,101033.28
2023-04-10T09:56:50.602Z,101026.72
2023-04-10T09:58:17.236Z,101026.78
2023-04-10T09:59:42.922Z,101039.41
2023-04-10T10:01:05.996Z,101038.78
2023-04-10T10:02:32.717Z,101029.91
2023-04-10T10:03:57.381Z,101032.72
2023-04-10T10:05:29.099Z,101027.22
2023-04-10T10:06:51.638Z,101018.31
2023-04-10T10:08:24.214Z,101019.66
2023-04-10T10:09:57.036Z,101018.81
2023-04-10T10:11:22.885Z,101021.78
2023-04-10T10:12:53.013Z,101015.59
2023-04-10T10:14:21.654Z,101014.22
2023-04-10T10:15:57.247Z,101016.91
2023-04-10T10:17:27.630Z,101012.41
2023-04-10T10:19:06.378Z,101005.84
2023-04-10T10:20:57.760Z,101010.44
2023-04-10T10:22:21.580Z,101010.47
2023-04-10T10:23:56.315Z,101007.31
2023-04-10T10:25:21.491Z,100998.50
2023-04-10T10:26:44.831Z,100991.50
2023-04-10T10:28:07.425Z,100984.31
2023-04-10T10:29:41.142Z,100983.78
2023-04-10T10:31:05.364Z,100992.09
2023-04-10T10:32:32.403Z,100987.59
2023-04-10T10:33:56.589Z,100984.16
2023-04-10T10:35:22.415Z,100984.94
2023-04-10T10:36:54.622Z,100979.72
2023-04-10T10:39:12.642Z,100959.13
2023-04-10T10:40:56.437Z,100963.19
2023-04-10T10:42:27.989Z,100955.97
2023-04-10T10:44:02.740Z,100961.91
2023-04-10T10:45:38.428Z,100963.22
2023-04-10T10:47:22.699Z,100943.50
2023-04-10T10:49:00.960Z,100945.47
2023-04-10T10:50:53.962Z,100940.56
2023-04-10T10:52:23.685Z,100948.13
2023-04-10T10:53:46.540Z,100944.88
2023-04-10T10:55:36.201Z,100946.75
2023-04-10T10:57:02.092Z,100945.81
2023-04-10T10:58:59.749Z,100938.81
2023-04-10T11:00:25.509Z,100943.94
2023-04-10T11:02:16.298Z,100936.28
2023-04-10T11:03:39.314Z,100928.91
2023-04-10T11:05:01.725Z,100926.69
2023-04-10T11:06:52.672Z,100917.59
2023-04-10T11:08:17.378Z,100924.72
2023-04-10T11:10:20.366Z,100921.81
2023-04-10T11:12:01.608Z,100917.47
2023-04-10T11:13:24.895Z,100923.13
2023-04-10T11:18:27.379Z,100923.34
2023-04-10T11:20:01.243Z,100916.72
2023-04-10T11:21:23.895Z,100902.84
2023-04-10T11:23:12.132Z,100917.28
2023-04-10T11:25:10.604Z,100911.84
2023-04-10T11:26:52.942Z,100902.69
2023-04-10T11:28:39.716Z,100893.16
2023-04-10T11:30:09.059Z,100899.59
2023-04-10T11:33:00.805Z,100895.81
2023-04-10T11:34:27.160Z,100890.69
2023-04-10T11:39:46.035Z,100877.69
2023-04-10T11:49:37.822Z,100880.50
2023-04-10T11:51:06.566Z,100888.06
2023-04-10T11:53:15.073Z,100886.53
2023-04-10T11:55:31.671Z,100885.81
2023-04-10T11:57:02.611Z,100881.72
2023-04-10T11:58:46.596Z,100892.50
2023-04-10T12:00:16.440Z,100884.59
2023-04-10T12:01:41.950Z,100869.34
2023-04-10T12:03:06.582Z,100878.97
2023-04-10T12:05:15.237Z,100879.16
2023-04-10T12:06:45.978Z,100877.84
2023-04-10T12:10:05.339Z,100875.19
2023-04-10T12:11:28.950Z,100868.31
2023-04-10T12:12:52.630Z,100869.03
2023-04-10T12:14:15.161Z,100866.78
2023-04-10T12:15:38.972Z,100862.72
2023-04-10T12:17:05.699Z,100866.22
2023-04-10T12:18:28.147Z,100868.69
2023-04-10T12:19:52.932Z,100858.53
2023-04-10T12:21:19.444Z,100857.03
2023-04-10T12:22:48.394Z,100844.94
2023-04-10T12:24:11.272Z,100853.13
2023-04-10T12:31:34.307Z,100844.69
2023-04-10T12:33:24.047Z,100853.44
2023-04-10T12:33:33.757Z,100841.34
2023-04-10T12:35:11.348Z,100846.94
2023-04-10T12:43:50.413Z,100854.50
2023-04-10T12:45:21.700Z,100847.97
2023-04-10T12:46:44.729Z,100854.69
2023-04-10T12:49:01.094Z,100841.91
2023-04-10T12:50:59.971Z,100846.69
2023-04-10T12:52:24.743Z,100838.31
2023-04-10T12:53:51.402Z,100845.03
2023-04-10T12:55:16.142Z,100837.28
2023-04-10T12:56:48.623Z,100839.81
2023-04-10T12:58:30.624Z,100850.69
2023-04-10T13:00:22.738Z,100820.53
2023-04-10T13:01:51.356Z,100827.03
2023-04-10T13:03:13.740Z,100824.31
2023-04-10T13:04:36.394Z,100824.72
2023-04-10T13:06:00.414Z,100828.91
2023-04-10T13:07:22.338Z,100824.94
2023-04-10T13:08:46.771Z,100818.41
2023-04-10T13:10:21.669Z,100808.28
2023-04-10T13:13:52.954Z,100806.97
2023-04-10T13:18:13.872Z,100803.00
2023-04-10T13:19:36.478Z,100802.97
2023-04-10T13:21:03.418Z,100793.91
2023-04-10T13:22:31.136Z,100784.25
2023-04-10T13:33:11.009Z,100784.00
2023-04-10T13:34:36.333Z,100782.38
2023-04-10T13:41:27.744Z,100765.81
2023-04-10T13:46:08.990Z,100752.47
2023-04-10T13:51:22.541Z,100761.34
2023-04-10T13:52:46.560Z,100758.84
2023-04-10T13:54:10.979Z,100759.91
2023-04-10T13:55:33.536Z,100750.94
2023-04-10T13:56:56.311Z,100751.13
2023-04-10T13:58:18.728Z,100737.91
2023-04-10T13:59:40.664Z,100742.50
2023-04-10T14:01:07.027Z,100747.94
2023-04-10T14:02:31.227Z,100738.91
2023-04-10T14:03:55.103Z,100744.34
2023-04-10T14:05:23.289Z,100740.38
2023-04-10T14:06:45.576Z,100744.91
2023-04-10T14:08:11.864Z,100730.91
2023-04-10T14:09:36.413Z,100735.06
2023-04-10T14:11:12.118Z,100743.88
2023-04-10T14:12:47.722Z,100738.19
2023-04-10T14:14:20.325Z,100732.31
2023-04-10T14:15:57.639Z,100725.75
2023-04-10T14:17:44.631Z,100726.94
2023-04-10T14:19:30.519Z,100720.78
2023-04-10T14:21:02.484Z,100720.78
2023-04-10T14:23:06.323Z,100712.50
2023-04-10T14:24:31.328Z,100726.06
2023-04-10T14:25:56.502Z,100717.63
2023-04-10T14:27:29.779Z,100716.72
2023-04-10T14:28:55.347Z,100704.91
2023-04-10T14:31:05.514Z,100707.97
2023-04-10T14:32:37.429Z,100695.59
2023-04-10T14:34:11.478Z,100698.19
2023-04-10T16:54:56.096Z,100503.94
2023-04-10T16:56:20.056Z,100508.81
2023-04-10T16:58:08.456Z,100510.31
2023-04-10T16:59:43.282Z,100522.09
2023-04-10T17:01:28.196Z,100507.63
2023-04-10T17:03:08.739Z,100512.72
2023-04-10T17:04:34.412Z,100510.19
2023-04-10T17:06:02.580Z,100505.13
2023-04-10T17:07:30.508Z,100510.53
2023-04-10T17:08:53.453Z,100504.47
2023-04-10T17:10:18.431Z,100502.47
2023-04-10T17:11:44.156Z,100510.41
2023-04-10T17:13:14.648Z,100504.88
2023-04-10T17:18:11.776Z,100512.53
2023-04-10T17:19:44.986Z,100507.91
2023-04-10T17:21:21.161Z,100501.84
2023-04-10T17:22:50.917Z,100515.34
2023-04-10T17:24:29.422Z,100519.22
2023-04-10T17:32:40.133Z,100520.91
2023-04-10T17:34:05.457Z,100520.25
2023-04-10T17:35:30.804Z,100516.41
2023-04-10T17:59:51.950Z,100500.19
2023-04-10T18:01:34.116Z,100498.34
2023-04-10T18:03:01.218Z,100495.81
2023-04-10T18:09:03.895Z,100491.47
2023-04-10T18:11:04.181Z,100496.22
2023-04-10T18:12:57.122Z,100506.78
2023-04-10T18:17:44.632Z,100507.16
2023-04-10T18:20:21.013Z,100516.72
2023-04-10T18:24:12.254Z,100512.06
2023-04-10T18:25:37.513Z,100509.34
2023-04-10T18:27:01.172Z,100510.34
2023-04-10T18:29:21.025Z,100510.19
2023-04-10T18:34:08.832Z,100502.09
2023-04-10T18:35:45.704Z,100493.88
2023-04-10T18:40:17.089Z,100498.13
2023-04-10T18:41:43.942Z,100513.41
2023-04-10T18:43:06.808Z,100498.75
2023-04-10T18:54:14.155Z,100500.81
2023-04-10T18:55:37.398Z,100489.72
2023-04-10T18:57:23.973Z,100499.97
2023-04-10T18:59:37.546Z,100502.00
2023-04-10T19:01:13.296Z,100495.28
2023-04-10T19:02:50.273Z,100485.03
2023-04-10T19:04:51.603Z,100479.13
2023-04-10T19:09:10.911Z,100491.25
2023-04-10T19:10:37.770Z,100500.16
2023-04-10T19:12:01.721Z,100494.63
2023-04-10T19:13:28.472Z,100490.06
2023-04-10T19:14:52.934Z,100482.03
2023-04-10T19:17:01.996Z,100484.72
2023-04-10T19:18:47.481Z,100484.53
2023-04-10T19:20:59.509Z,100478.47
2023-04-10T19:22:40.866Z,100485.88
2023-04-10T19:24:10.431Z,100483.84
2023-04-10T19:25:35.425Z,100490.91
2023-04-10T19:26:57.865Z,100480.47
2023-04-10T19:32:38.969Z,100473.63
2023-04-10T19:34:22.016Z,100492.78
2023-04-10T19:35:46.651Z,100488.72
2023-04-10T19:37:22.010Z,100478.13
2023-04-10T19:39:03.588Z,100491.91
2023-04-10T19:40:26.212Z,100491.91
2023-04-10T19:41:48.472Z,100490.25
2023-04-10T19:43:21.185Z,100490.94
2023-04-10T19:44:46.547Z,100499.84
2023-04-10T19:46:08.820Z,100479.31
2023-04-10T19:47:31.234Z,100496.31
2023-04-10T19:48:54.887Z,100491.09
2023-04-10T19:50:17.312Z,100495.47
2023-04-10T19:51:40.130Z,100486.53
2023-04-10T19:53:02.403Z,100472.75
2023-04-10T19:54:27.008Z,100475.63
2023-04-10T19:55:49.071Z,100481.34
2023-04-10T19:57:14.236Z,100489.41
2023-04-10T19:58:40.963Z,100478.13
2023-04-10T20:00:24.933Z,100473.94
2023-04-10T20:01:47.472Z,100481.69
2023-04-10T20:03:18.144Z,100476.31
2023-04-10T20:04:48.588Z,100473.94
2023-04-10T20:06:13.025Z,100468.22
2023-04-10T20:07:35.448Z,100469.75
2023-04-10T20:09:01.584Z,100462.19
2023-04-10T20:10:25.647Z,100458.84
2023-04-10T20:11:51.532Z,100453.78
2023-04-10T20:13:13.868Z,100464.22
2023-04-10T20:14:36.446Z,100450.44
2023-04-10T20:15:58.894Z,100450.44
2023-04-10T20:17:53.463Z,100438.69
2023-04-10T20:19:19.315Z,100450.44
2023-04-10T20:20:44.886Z,100449.59
2023-04-10T20:22:11.952Z,100437.50
2023-04-10T20:23:34.581Z,100437.00
2023-04-10T20:24:56.144Z,100438.69
2023-04-10T20:26:44.951Z,100435.31
2023-04-10T20:28:10.486Z,100440.69
2023-04-10T20:30:52.344Z,100420.53
2023-04-10T20:34:35.651Z,100409.63
2023-04-10T20:39:31.884Z,100399.72
2023-04-10T20:41:34.263Z,100417.53
2023-04-10T20:45:40.741Z,100399.56
2023-04-10T20:47:07.089Z,100387.13
2023-04-10T20:48:48.384Z,100396.69
2023-04-10T21:08:37.866Z,100359.28
2023-04-10T21:10:06.453Z,100352.88
2023-04-10T21:21:15.581Z,100346.50
2023-04-10T21:22:58.750Z,100339.44
2023-04-10T21:25:55.868Z,100353.03
2023-04-10T21:36:31.697Z,100359.59
2023-04-10T21:37:11.098Z,100349.19
2023-04-10T21:38:35.605Z,100355.25
2023-04-10T21:39:59.291Z,100338.78
2023-04-10T22:58:29.299Z,100236.81
2023-04-10T22:59:50.732Z,100227.59
2023-04-10T23:01:13.676Z,100223.75
2023-04-10T23:02:41.839Z,100236.31
2023-04-10T23:04:14.429Z,100228.47
2023-04-10T23:05:43.235Z,100220.03
2023-04-10T23:07:04.502Z,100218.03
2023-04-10T23:08:29.360Z,100203.31
2023-04-10T23:09:51.224Z,100215.06
2023-04-10T23:11:20.321Z,100200.63
2023-04-10T23:12:43.662Z,100215.34
2023-04-10T23:14:55.977Z,100217.88
2023-04-10T23:16:44.110Z,100223.41
2023-04-10T23:18:17.132Z,100207.81
2023-04-10T23:19:40.056Z,100202.28
2023-04-10T23:21:34.782Z,100202.59
2023-04-10T23:23:12.237Z,100193.72
2023-04-10T23:24:36.930Z,100205.47
2023-04-10T23:26:02.935Z,100197.06
2023-04-10T23:27:31.351Z,100193.56
2023-04-10T23:28:56.361Z,100199.75
2023-04-10T23:30:19.071Z,100191.03
2023-04-10T23:31:41.792Z,100191.56
2023-04-10T23:33:07.188Z,100173.59
2023-04-10T23:36:38.555Z,100169.41
2023-04-10T23:38:06.841Z,100150.31
2023-04-10T23:39:31.031Z,100154.81
2023-04-10T23:40:55.871Z,100162.88
2023-04-10T23:42:21.390Z,100155.13
2023-04-10T23:44:34.109Z,100143.56
2023-04-10T23:46:05.210Z,100143.09
2023-04-10T23:47:29.077Z,100144.25
2023-04-10T23:48:54.687Z,100145.59
2023-04-10T23:50:22.761Z,100121.09
2023-04-10T23:52:59.569Z,100134.50
2023-04-10T23:54:19.926Z,100128.81
2023-04-10T23:55:40.898Z,100111.41
2023-04-10T23:57:05.175Z,100104.84
2023-04-10T23:58:32.882Z,100108.72
2023-04-10T23:59:54.291Z,100109.38
